Bocaiuva, Brazil
Current Conditions -  °F | °C
As of 7:00 PM on Thursday 23 Oct 2014 (Local Time) from SBMK Reporting Station
Few Clouds Few Clouds  
Wind Chill: 82°   Ceiling: Unl
Heat Index: 82°   Visibility: 6mi
Dew Point: 54°   Wind: 10mph
Humidity: 37%   Direction: 80°E
Pressure: 30"   Gusts: NA
Location:  17.11°S, 43.81°W
Report Text: SBMK 232100Z 08009KT 9999 FEW045 FEW050TCU 28/12 Q1016
Loading
Personal Weather Stations






























Interactive Weather Map
Tropical Storm Tracking
New forecast layout! Learn more

10-Day Weather Forecast

Advertisements
Track Severe Weather on mobile